西安 の空港の天気 - METARとTAF

西安咸陽国際空港 ( ZLXY / XIY ) - 中国 陝西省西安市
飛行場実況気象(Metar)
観測時間07/19 08:00 CST (07/19 00:00 UTC)
風向・風速北東 5m/s
視程10km以上
天気現象
なし
気温29℃
湿度70%
気圧1002hPa
METARZLXY 190000Z 04005MPS CAVOK 29/23 Q1002 NOSIG
過去の天気等 Google飛行場航空写真 Wunderground天気予報

過去48時間のMETAR

飛行場予報(TAF)
発表時間: 7/19 03:07 CST (7/18 19:07 UTC)
予報対象時間: 19日8時 CST ~ 20日8時 CST
風向・風速東 4m/s
視程3000m
天気現象煙霧
なし
TAF ZLXY 181907Z 1900/1924 08004MPS 3000 HZ NSC TX39/1908Z TN27/1921Z